Time;durP1;ratioP1;P1;durP2;ratioP2;P2;SDS_P1;SDS_P2;PMS_P1;PMS_P2;Temp;Humidity;BMP_temperature;BMP_pressure;BME280_temperature;BME280_humidity;BME280_pressure;Samples;Min_cycle;Max_cycle;Signal;HPM_P1;HPM_P2
2023/11/09 00:02:16;;;;;;;0.50;0.50;;;8.20;99.60;;;;;;4980895;28;20039;-72
2023/11/09 00:04:42;;;;;;;1.60;0.70;;;8.20;99.60;;;;;;4991088;28;20368;-70
2023/11/09 00:07:08;;;;;;;1.27;0.60;;;8.30;99.60;;;;;;4986064;28;20134;-70
2023/11/09 00:09:34;;;;;;;1.25;0.50;;;8.30;99.40;;;;;;4988440;28;20521;-72
2023/11/09 00:12:00;;;;;;;0.85;0.45;;;8.40;99.40;;;;;;4983015;28;20419;-71
2023/11/09 00:14:26;;;;;;;0.63;0.50;;;8.30;99.40;;;;;;4983639;28;20049;-71
2023/11/09 00:16:53;;;;;;;1.45;0.85;;;8.30;99.40;;;;;;4989046;28;20027;-70
2023/11/09 00:19:19;;;;;;;0.63;0.50;;;8.40;99.30;;;;;;4991099;28;20053;-70
2023/11/09 00:21:45;;;;;;;1.00;0.40;;;8.30;99.30;;;;;;4989198;28;20030;-72
2023/11/09 00:24:10;;;;;;;0.85;0.45;;;8.40;99.40;;;;;;4990476;28;20062;-71
2023/11/09 00:26:41;;;;;;;0.50;0.50;;;8.40;99.40;;;;;;4983416;28;20050;-71
2023/11/09 00:29:07;;;;;;;0.30;0.30;;;8.40;99.40;;;;;;4985968;28;20084;-71
2023/11/09 00:31:32;;;;;;;1.35;0.60;;;8.40;99.40;;;;;;4987464;28;20483;-71
2023/11/09 00:33:58;;;;;;;0.32;0.32;;;8.40;99.50;;;;;;4989689;28;20045;-71
2023/11/09 00:36:23;;;;;;;0.70;0.70;;;8.40;99.50;;;;;;4985413;28;20038;-71
2023/11/09 00:38:49;;;;;;;1.50;0.60;;;8.40;99.50;;;;;;4990474;28;20175;-71
2023/11/09 00:41:15;;;;;;;0.82;0.50;;;8.40;99.50;;;;;;4984802;28;20059;-73
2023/11/09 00:43:41;;;;;;;1.58;0.70;;;8.40;99.50;;;;;;4989079;28;20034;-71
2023/11/09 00:46:06;;;;;;;1.02;0.60;;;8.50;99.50;;;;;;4989610;28;20038;-70
2023/11/09 00:48:32;;;;;;;0.90;0.75;;;8.40;99.60;;;;;;4982703;28;20031;-70
2023/11/09 00:50:57;;;;;;;0.70;0.50;;;8.50;99.70;;;;;;4989120;28;20034;-71
2023/11/09 00:53:23;;;;;;;0.82;0.50;;;8.40;99.80;;;;;;4992028;28;20038;-73
2023/11/09 00:55:48;;;;;;;0.93;0.47;;;8.50;99.90;;;;;;4985857;28;20027;-71
2023/11/09 00:58:14;;;;;;;1.45;0.70;;;8.50;99.90;;;;;;4985877;28;20538;-70
2023/11/09 01:00:40;;;;;;;0.75;0.70;;;8.50;99.90;;;;;;4983338;28;20039;-72
2023/11/09 01:03:05;;;;;;;1.13;0.55;;;8.50;99.90;;;;;;4986684;28;20117;-70
2023/11/09 01:05:31;;;;;;;1.48;0.50;;;8.50;99.90;;;;;;4986010;28;20371;-71
2023/11/09 01:07:56;;;;;;;0.90;0.57;;;8.50;99.90;;;;;;4986976;28;20034;-71
2023/11/09 01:10:22;;;;;;;0.65;0.55;;;8.60;99.90;;;;;;4988154;28;20027;-71
2023/11/09 01:12:47;;;;;;;0.40;0.40;;;8.60;99.90;;;;;;4992730;28;20034;-71
2023/11/09 01:15:13;;;;;;;1.27;0.68;;;8.60;99.90;;;;;;4983978;28;20477;-71
2023/11/09 01:17:38;;;;;;;0.82;0.60;;;8.60;99.90;;;;;;4977525;28;20126;-71
2023/11/09 01:20:07;;;;;;;0.60;0.50;;;8.60;99.90;;;;;;4991869;28;20062;-72
2023/11/09 01:22:34;;;;;;;1.02;0.73;;;8.60;99.90;;;;;;4987002;28;20104;-71
2023/11/09 01:24:59;;;;;;;1.05;0.65;;;8.60;99.90;;;;;;4989615;28;20026;-71
2023/11/09 01:27:25;;;;;;;1.15;0.80;;;8.60;99.90;;;;;;4982753;28;20055;-72
2023/11/09 01:29:50;;;;;;;1.50;0.70;;;8.60;99.90;;;;;;4989190;28;20421;-70
2023/11/09 01:32:16;;;;;;;0.88;0.68;;;8.60;99.90;;;;;;4986822;28;20062;-72
2023/11/09 01:34:42;;;;;;;0.80;0.70;;;8.60;99.90;;;;;;4989360;28;20415;-70
2023/11/09 01:37:10;;;;;;;1.35;0.65;;;8.60;99.90;;;;;;4987325;28;20478;-73
2023/11/09 01:39:38;;;;;;;0.93;0.60;;;8.60;99.90;;;;;;4987954;28;20530;-72
2023/11/09 01:42:04;;;;;;;1.35;0.57;;;8.60;99.90;;;;;;4978969;28;20031;-74
2023/11/09 01:44:30;;;;;;;1.00;0.60;;;8.60;99.90;;;;;;4989926;28;20030;-71
2023/11/09 01:46:58;;;;;;;1.45;0.63;;;8.60;99.90;;;;;;4985305;28;20493;-73
2023/11/09 01:49:24;;;;;;;0.65;0.60;;;8.60;99.90;;;;;;4987411;28;20027;-71
2023/11/09 01:51:54;;;;;;;0.57;0.55;;;8.60;99.90;;;;;;4987702;28;20045;-70
2023/11/09 01:54:21;;;;;;;0.60;0.60;;;8.60;99.90;;;;;;4989426;28;20522;-70
2023/11/09 01:56:46;;;;;;;1.35;0.60;;;8.60;99.90;;;;;;4984893;28;20435;-71
2023/11/09 01:59:13;;;;;;;0.55;0.50;;;8.60;99.90;;;;;;4986575;28;20031;-72
2023/11/09 02:01:41;;;;;;;0.75;0.65;;;8.60;99.90;;;;;;4987723;28;20069;-71
2023/11/09 02:04:07;;;;;;;0.52;0.52;;;8.60;99.90;;;;;;4987017;28;20121;-71
2023/11/09 02:06:34;;;;;;;1.05;0.70;;;8.60;99.90;;;;;;4984881;28;20026;-71
2023/11/09 02:09:00;;;;;;;1.00;0.70;;;8.60;99.90;;;;;;4985079;28;20066;-72
2023/11/09 02:11:26;;;;;;;1.00;0.57;;;8.60;99.90;;;;;;4978530;28;20038;-73
2023/11/09 02:13:51;;;;;;;0.98;0.70;;;8.60;99.90;;;;;;4987274;28;20046;-71
2023/11/09 02:16:17;;;;;;;1.92;0.82;;;8.70;99.90;;;;;;4984397;28;20046;-73
2023/11/09 02:18:42;;;;;;;0.65;0.57;;;8.70;99.90;;;;;;4988516;28;20053;-71
2023/11/09 02:21:11;;;;;;;1.33;0.85;;;8.60;99.90;;;;;;4990248;28;20092;-71
2023/11/09 02:23:39;;;;;;;1.17;0.85;;;8.70;99.90;;;;;;4987409;28;20387;-71
2023/11/09 02:26:05;;;;;;;0.60;0.50;;;8.70;99.90;;;;;;4985949;28;20576;-71
2023/11/09 02:28:32;;;;;;;0.63;0.60;;;8.70;99.90;;;;;;4984514;28;20030;-72
2023/11/09 02:30:57;;;;;;;0.90;0.70;;;8.70;99.90;;;;;;4985496;28;20038;-72
2023/11/09 02:33:23;;;;;;;0.77;0.63;;;8.70;99.90;;;;;;4991298;28;20085;-72
2023/11/09 02:35:49;;;;;;;0.93;0.70;;;8.70;99.90;;;;;;4991942;28;20037;-72
2023/11/09 02:38:14;;;;;;;1.17;0.73;;;8.70;99.90;;;;;;4984176;28;20117;-71
2023/11/09 02:40:40;;;;;;;1.08;0.45;;;8.70;99.90;;;;;;4988799;28;20117;-72
2023/11/09 02:43:06;;;;;;;1.52;0.90;;;8.70;99.90;;;;;;4988725;28;20480;-72
2023/11/09 02:45:31;;;;;;;0.75;0.65;;;8.70;99.90;;;;;;4992122;28;20026;-71
2023/11/09 02:47:57;;;;;;;1.23;0.60;;;8.80;99.90;;;;;;4986597;28;20399;-72
2023/11/09 02:50:23;;;;;;;1.35;0.90;;;8.70;99.90;;;;;;4992379;28;20056;-72
2023/11/09 02:52:48;;;;;;;0.82;0.70;;;8.80;99.90;;;;;;4986758;28;20034;-72
2023/11/09 02:55:16;;;;;;;0.95;0.60;;;8.80;99.90;;;;;;4992416;28;20411;-75
2023/11/09 02:57:42;;;;;;;1.00;0.60;;;8.80;99.90;;;;;;4989096;28;20625;-72
2023/11/09 03:00:09;;;;;;;1.58;0.68;;;8.80;99.90;;;;;;4993017;28;20042;-72
2023/11/09 03:02:34;;;;;;;1.60;0.85;;;8.80;99.90;;;;;;4988716;28;20023;-71
2023/11/09 03:05:01;;;;;;;1.30;0.80;;;8.80;99.90;;;;;;4989071;28;20545;-72
2023/11/09 03:07:27;;;;;;;1.33;0.70;;;8.80;99.90;;;;;;4989542;28;20035;-73
2023/11/09 03:09:52;;;;;;;1.05;0.60;;;8.80;99.90;;;;;;4987894;28;20498;-71
2023/11/09 03:12:18;;;;;;;1.13;0.77;;;8.80;99.90;;;;;;4986459;28;20379;-74
2023/11/09 03:14:43;;;;;;;0.77;0.57;;;8.80;99.90;;;;;;4989240;28;20077;-71
2023/11/09 03:17:10;;;;;;;2.17;0.90;;;8.80;99.90;;;;;;4989804;28;20033;-72
2023/11/09 03:19:37;;;;;;;1.23;0.70;;;8.80;99.90;;;;;;4988680;28;20506;-72
2023/11/09 03:22:07;;;;;;;1.35;0.90;;;8.80;99.90;;;;;;4990291;28;20038;-72
2023/11/09 03:24:33;;;;;;;0.55;0.50;;;8.80;99.90;;;;;;4986146;28;20022;-72
2023/11/09 03:26:58;;;;;;;1.00;0.60;;;8.80;99.90;;;;;;4990533;28;20042;-71
2023/11/09 03:29:24;;;;;;;1.17;0.60;;;8.80;99.90;;;;;;4991135;28;20495;-72
2023/11/09 03:31:50;;;;;;;0.70;0.47;;;8.80;99.90;;;;;;4986934;28;20475;-73
2023/11/09 03:34:15;;;;;;;1.35;0.80;;;8.80;99.90;;;;;;4992536;28;20085;-72
2023/11/09 03:36:41;;;;;;;0.70;0.60;;;8.80;99.90;;;;;;4990614;28;20027;-73
2023/11/09 03:39:06;;;;;;;0.70;0.60;;;8.80;99.90;;;;;;4991851;28;20096;-71
2023/11/09 03:41:31;;;;;;;0.93;0.68;;;8.80;99.90;;;;;;4988747;28;20062;-71
2023/11/09 03:43:57;;;;;;;1.42;0.95;;;8.80;99.90;;;;;;4982666;28;20030;-71
2023/11/09 03:46:23;;;;;;;0.98;0.82;;;8.80;99.90;;;;;;4988202;28;20394;-72
2023/11/09 03:48:48;;;;;;;0.90;0.70;;;8.80;99.90;;;;;;4986736;28;20034;-73
2023/11/09 03:51:14;;;;;;;0.98;0.77;;;8.80;99.90;;;;;;4986140;28;20449;-71
2023/11/09 03:53:40;;;;;;;1.02;0.65;;;8.90;99.90;;;;;;4989138;28;20030;-71
2023/11/09 03:56:06;;;;;;;1.42;0.70;;;8.90;99.90;;;;;;4991892;28;20113;-74
2023/11/09 03:58:33;;;;;;;1.67;1.10;;;8.90;99.90;;;;;;4990544;28;20117;-71
2023/11/09 04:00:59;;;;;;;1.73;1.20;;;8.90;99.90;;;;;;4985858;28;20041;-71
2023/11/09 04:03:25;;;;;;;1.42;1.10;;;8.90;99.90;;;;;;4990537;28;20039;-71
2023/11/09 04:05:51;;;;;;;0.98;0.68;;;8.90;99.90;;;;;;4987504;28;20046;-73
2023/11/09 04:08:16;;;;;;;1.52;0.95;;;8.90;99.90;;;;;;4988200;28;20026;-72
2023/11/09 04:10:42;;;;;;;1.48;1.00;;;8.90;99.90;;;;;;4991230;28;20039;-73
2023/11/09 04:13:08;;;;;;;1.77;0.80;;;8.90;99.90;;;;;;4987989;28;20424;-72
2023/11/09 04:15:34;;;;;;;0.98;0.73;;;8.90;99.90;;;;;;4982421;28;20359;-71
2023/11/09 04:17:59;;;;;;;1.52;0.93;;;8.90;99.90;;;;;;4987863;28;20035;-73
2023/11/09 04:20:25;;;;;;;1.38;0.85;;;8.90;99.90;;;;;;4987934;28;20038;-73
2023/11/09 04:22:50;;;;;;;4.03;0.95;;;8.90;99.90;;;;;;4989119;28;20069;-72
2023/11/09 04:25:17;;;;;;;2.38;1.00;;;8.90;99.90;;;;;;4991411;28;20454;-72
2023/11/09 04:27:43;;;;;;;1.98;0.88;;;8.90;99.90;;;;;;4989345;28;20487;-71
2023/11/09 04:30:14;;;;;;;1.55;0.98;;;8.90;99.90;;;;;;4990135;28;20045;-71
2023/11/09 04:32:41;;;;;;;2.13;1.10;;;8.90;99.90;;;;;;4984007;28;20360;-72
2023/11/09 04:35:07;;;;;;;0.77;0.63;;;8.90;99.90;;;;;;4991207;28;20030;-72
2023/11/09 04:37:32;;;;;;;2.13;1.00;;;8.90;99.90;;;;;;4989889;28;20034;-72
2023/11/09 04:39:58;;;;;;;1.33;0.88;;;8.90;99.90;;;;;;4986980;28;20043;-72
2023/11/09 04:42:29;;;;;;;1.25;1.08;;;8.90;99.90;;;;;;4986148;28;20117;-71
2023/11/09 04:44:56;;;;;;;1.35;0.73;;;8.90;99.90;;;;;;4989041;28;20030;-73
2023/11/09 04:47:25;;;;;;;2.03;0.90;;;8.90;99.90;;;;;;4987921;28;20418;-73
2023/11/09 04:49:58;;;;;;;1.70;1.02;;;8.90;99.90;;;;;;4986859;28;20049;-72
2023/11/09 04:52:26;;;;;;;1.13;0.55;;;8.90;99.90;;;;;;4990983;28;20406;-72
2023/11/09 04:54:59;;;;;;;1.30;0.80;;;8.90;99.90;;;;;;4989394;28;20471;-74
2023/11/09 05:08:25;;;;;;;1.23;0.80;;;8.90;99.90;;;;;;4985118;28;20494;-73
2023/11/09 05:10:50;;;;;;;0.98;0.80;;;8.90;99.90;;;;;;4988162;28;20030;-72
2023/11/09 05:13:16;;;;;;;1.42;0.90;;;8.90;99.90;;;;;;4985881;28;20477;-72
2023/11/09 05:15:44;;;;;;;0.85;0.60;;;8.90;99.90;;;;;;4988332;28;20022;-72
2023/11/09 05:18:09;;;;;;;1.45;0.88;;;8.90;99.90;;;;;;4988079;28;20061;-72
2023/11/09 05:20:35;;;;;;;1.77;0.90;;;8.90;99.90;;;;;;4989848;28;20042;-72
2023/11/09 05:23:01;;;;;;;1.30;0.77;;;8.90;99.90;;;;;;4991192;28;20042;-72
2023/11/09 05:25:28;;;;;;;2.03;1.02;;;8.90;99.90;;;;;;4986385;28;20109;-72
2023/11/09 05:27:54;;;;;;;1.15;0.93;;;8.90;99.90;;;;;;4983421;28;20101;-70
2023/11/09 05:30:20;;;;;;;1.45;0.90;;;8.90;99.90;;;;;;4989005;28;20030;-68
2023/11/09 05:32:46;;;;;;;2.03;0.88;;;8.90;99.90;;;;;;4983708;28;20041;-68
2023/11/09 05:35:11;;;;;;;1.55;0.95;;;8.80;99.90;;;;;;4989069;28;20022;-69
2023/11/09 05:37:37;;;;;;;1.38;1.00;;;8.80;99.90;;;;;;4987359;28;20173;-68
2023/11/09 05:40:07;;;;;;;2.30;1.08;;;8.90;99.90;;;;;;4987860;28;20065;-71
2023/11/09 05:42:34;;;;;;;1.73;1.00;;;8.90;99.90;;;;;;4984830;28;20430;-68
2023/11/09 05:45:02;;;;;;;1.65;0.88;;;8.80;99.90;;;;;;4987865;28;20030;-69
2023/11/09 05:47:28;;;;;;;1.63;1.05;;;8.80;99.90;;;;;;4984305;28;20033;-67
2023/11/09 05:49:56;;;;;;;2.03;1.08;;;8.80;99.90;;;;;;4983630;28;20042;-67
2023/11/09 05:52:22;;;;;;;1.58;1.08;;;8.80;99.90;;;;;;4982343;28;20501;-67
2023/11/09 05:54:48;;;;;;;1.15;0.93;;;8.80;99.90;;;;;;4984187;28;20046;-68
2023/11/09 05:57:14;;;;;;;1.67;0.95;;;8.80;99.90;;;;;;4982225;28;20037;-68
2023/11/09 05:59:40;;;;;;;1.20;0.98;;;8.80;99.90;;;;;;4983561;28;20038;-71
2023/11/09 06:02:07;;;;;;;2.05;1.00;;;8.80;99.90;;;;;;4984374;28;20400;-68
2023/11/09 06:04:33;;;;;;;1.90;1.00;;;8.80;99.90;;;;;;4987140;28;20131;-68
2023/11/09 06:07:00;;;;;;;1.10;0.85;;;8.80;99.90;;;;;;4982652;28;20062;-68
2023/11/09 06:09:25;;;;;;;1.77;0.93;;;8.80;99.90;;;;;;4979227;28;20583;-69
2023/11/09 06:11:53;;;;;;;2.08;1.20;;;8.80;99.90;;;;;;4981476;28;20039;-71
2023/11/09 06:14:19;;;;;;;1.35;1.00;;;8.80;99.90;;;;;;4982731;28;20415;-68
2023/11/09 06:16:44;;;;;;;2.13;0.98;;;8.80;99.90;;;;;;4987960;28;23081;-71
2023/11/09 06:19:10;;;;;;;1.95;0.85;;;8.80;99.90;;;;;;4989871;28;20129;-68
2023/11/09 06:21:35;;;;;;;1.70;1.00;;;8.80;99.90;;;;;;4990148;28;20037;-69
2023/11/09 06:24:01;;;;;;;0.90;0.85;;;8.80;99.90;;;;;;4988315;28;20042;-67
2023/11/09 06:26:26;;;;;;;1.92;1.02;;;8.80;99.90;;;;;;4984344;28;20047;-69
2023/11/09 06:28:52;;;;;;;1.85;1.05;;;8.80;99.90;;;;;;4986274;28;20042;-70
2023/11/09 06:31:21;;;;;;;1.48;0.93;;;8.80;99.90;;;;;;4987200;28;20106;-67
2023/11/09 06:33:47;;;;;;;2.42;1.20;;;8.80;99.90;;;;;;4985148;28;20054;-67
2023/11/09 06:36:12;;;;;;;2.15;0.93;;;8.80;99.90;;;;;;4978344;28;20088;-67
2023/11/09 06:38:37;;;;;;;2.80;1.17;;;8.80;99.90;;;;;;4985428;28;20030;-67
2023/11/09 06:41:03;;;;;;;1.58;0.90;;;8.80;99.90;;;;;;4987360;28;20384;-67
2023/11/09 06:43:29;;;;;;;1.23;0.88;;;8.80;99.90;;;;;;4981629;28;20026;-67
2023/11/09 06:45:54;;;;;;;1.55;1.00;;;8.80;99.90;;;;;;4982465;28;20031;-69
2023/11/09 06:48:19;;;;;;;1.10;0.73;;;8.80;99.90;;;;;;4981863;28;20065;-67
2023/11/09 06:50:45;;;;;;;1.95;1.25;;;8.80;99.90;;;;;;4981740;28;20043;-66
2023/11/09 06:53:10;;;;;;;1.48;1.05;;;8.80;99.90;;;;;;4983272;28;20231;-67
2023/11/09 06:55:36;;;;;;;0.60;0.47;;;8.80;99.90;;;;;;4982374;28;20034;-67
2023/11/09 06:58:02;;;;;;;1.75;0.98;;;8.80;99.90;;;;;;4985007;28;20030;-66
2023/11/09 07:00:27;;;;;;;0.60;0.60;;;8.80;99.90;;;;;;4978624;28;20042;-66
2023/11/09 07:02:57;;;;;;;1.92;1.08;;;8.80;99.90;;;;;;4982545;28;20051;-72
2023/11/09 07:05:24;;;;;;;1.15;0.82;;;8.80;99.90;;;;;;4983147;28;20038;-72
2023/11/09 07:07:49;;;;;;;1.55;0.98;;;8.80;99.90;;;;;;4988367;28;20022;-68
2023/11/09 07:10:15;;;;;;;0.88;0.70;;;8.80;99.90;;;;;;4984808;28;20038;-73
2023/11/09 07:12:41;;;;;;;1.58;0.77;;;8.80;99.90;;;;;;4976139;28;20514;-69
2023/11/09 07:15:07;;;;;;;1.48;1.00;;;8.80;99.90;;;;;;4980686;28;20042;-69
2023/11/09 07:17:33;;;;;;;2.45;1.00;;;8.80;99.90;;;;;;4991147;28;20026;-69
2023/11/09 07:19:59;;;;;;;0.68;0.52;;;8.80;99.90;;;;;;4991826;28;20495;-68
2023/11/09 07:22:24;;;;;;;1.02;0.70;;;8.80;99.90;;;;;;4988637;28;20035;-69
2023/11/09 07:24:52;;;;;;;1.63;0.70;;;8.80;99.90;;;;;;4992778;28;20030;-68
2023/11/09 07:27:21;;;;;;;1.35;0.80;;;8.80;99.90;;;;;;4990689;28;20120;-68
2023/11/09 07:29:47;;;;;;;2.17;1.00;;;8.80;99.90;;;;;;4994249;28;20038;-68
2023/11/09 07:32:12;;;;;;;1.27;0.95;;;8.80;99.90;;;;;;4992146;28;20101;-68
2023/11/09 07:34:38;;;;;;;3.30;1.33;;;8.80;99.90;;;;;;4993486;28;20430;-68
2023/11/09 07:37:04;;;;;;;1.92;0.93;;;8.80;99.90;;;;;;4992314;28;20458;-68
2023/11/09 07:39:30;;;;;;;1.55;0.95;;;8.90;99.90;;;;;;4989853;28;20093;-69
2023/11/09 07:42:04;;;;;;;1.67;0.90;;;8.90;99.90;;;;;;4989274;28;20038;-69
2023/11/09 07:44:30;;;;;;;1.02;0.77;;;8.90;99.90;;;;;;4989255;28;20034;-69
2023/11/09 07:46:56;;;;;;;1.67;0.93;;;8.90;99.90;;;;;;4991408;28;20034;-70
2023/11/09 07:49:22;;;;;;;2.17;1.00;;;8.90;99.90;;;;;;4992863;28;20076;-68
2023/11/09 07:51:48;;;;;;;1.80;1.00;;;8.90;99.90;;;;;;4986797;28;20063;-68
2023/11/09 07:54:19;;;;;;;1.42;0.85;;;8.90;99.90;;;;;;4985900;28;20030;-68
2023/11/09 07:56:44;;;;;;;1.85;1.17;;;8.90;99.90;;;;;;4986039;28;20388;-70
2023/11/09 07:59:10;;;;;;;1.60;0.77;;;8.90;99.90;;;;;;4985733;28;20039;-68
2023/11/09 08:01:36;;;;;;;1.60;0.93;;;8.90;99.90;;;;;;4989919;28;20386;-69
2023/11/09 08:04:01;;;;;;;1.90;1.25;;;8.90;99.90;;;;;;4990111;28;20394;-68
2023/11/09 08:06:27;;;;;;;2.28;0.93;;;8.90;99.90;;;;;;4979136;28;20046;-68
2023/11/09 08:08:53;;;;;;;2.15;1.00;;;8.90;99.90;;;;;;4989945;28;20037;-68
2023/11/09 08:11:19;;;;;;;1.98;1.10;;;8.90;99.90;;;;;;4991223;28;20109;-67
2023/11/09 08:13:45;;;;;;;1.73;0.75;;;8.90;99.90;;;;;;4985457;28;20033;-69
2023/11/09 08:16:10;;;;;;;2.60;0.75;;;9.00;99.90;;;;;;4994349;28;20035;-68
2023/11/09 08:18:36;;;;;;;1.95;0.88;;;9.00;99.90;;;;;;4986086;28;20368;-68
2023/11/09 08:21:04;;;;;;;1.88;0.82;;;9.00;99.90;;;;;;4986832;28;20027;-69
2023/11/09 08:23:33;;;;;;;1.38;0.80;;;9.00;99.90;;;;;;4990786;28;20043;-67
2023/11/09 08:25:58;;;;;;;1.60;0.88;;;9.00;99.90;;;;;;4989403;28;20051;-68
2023/11/09 08:28:24;;;;;;;1.13;0.73;;;9.10;99.90;;;;;;4989115;28;20081;-68
2023/11/09 08:30:51;;;;;;;1.38;0.80;;;9.10;99.90;;;;;;4983634;28;20423;-68
2023/11/09 08:33:21;;;;;;;1.05;0.70;;;9.10;99.90;;;;;;4990734;28;20065;-69
2023/11/09 08:35:48;;;;;;;1.08;0.52;;;9.10;99.90;;;;;;4986077;28;20034;-68
2023/11/09 08:38:14;;;;;;;1.02;0.77;;;9.10;99.90;;;;;;4987904;28;20455;-68
2023/11/09 08:40:39;;;;;;;0.98;0.77;;;9.10;99.90;;;;;;4994075;28;20038;-67
2023/11/09 08:43:05;;;;;;;1.10;0.80;;;9.10;99.90;;;;;;4986356;28;20035;-68
2023/11/09 08:45:31;;;;;;;1.10;0.80;;;9.10;99.90;;;;;;4991854;28;20117;-68
2023/11/09 08:47:57;;;;;;;1.13;0.75;;;9.10;99.90;;;;;;4986949;28;20030;-69
2023/11/09 08:50:24;;;;;;;1.48;0.85;;;9.10;99.90;;;;;;4991015;28;20077;-68
2023/11/09 08:52:53;;;;;;;1.15;0.95;;;9.10;99.90;;;;;;4991778;28;20109;-68
2023/11/09 08:55:20;;;;;;;1.00;0.88;;;9.10;99.90;;;;;;4990840;28;20031;-68
2023/11/09 08:57:47;;;;;;;1.08;0.63;;;9.10;99.90;;;;;;4990108;28;20137;-71
2023/11/09 09:00:13;;;;;;;1.25;0.88;;;9.10;99.90;;;;;;4985363;28;20034;-69
2023/11/09 09:02:48;;;;;;;1.27;0.75;;;9.20;99.90;;;;;;4987649;28;20030;-69
2023/11/09 09:05:15;;;;;;;1.02;0.68;;;9.20;99.90;;;;;;4986002;28;20031;-68
2023/11/09 09:07:42;;;;;;;1.63;1.02;;;9.20;99.90;;;;;;4988007;28;20030;-68
2023/11/09 09:10:12;;;;;;;1.60;1.00;;;9.10;99.90;;;;;;4988450;28;20038;-68
2023/11/09 09:12:38;;;;;;;1.00;0.80;;;9.10;99.90;;;;;;4981637;28;20105;-68
2023/11/09 09:15:12;;;;;;;1.27;0.88;;;9.20;99.90;;;;;;4985856;28;20114;-68
2023/11/09 09:17:42;;;;;;;1.73;0.90;;;9.20;99.90;;;;;;4989295;28;20044;-68
2023/11/09 09:20:11;;;;;;;1.17;0.82;;;9.20;99.90;;;;;;4988830;28;20395;-68
2023/11/09 09:22:38;;;;;;;1.08;0.77;;;9.20;99.90;;;;;;4987058;28;20058;-68
2023/11/09 09:25:04;;;;;;;1.85;1.00;;;9.20;99.90;;;;;;4988430;28;20121;-68
2023/11/09 09:27:30;;;;;;;1.30;0.70;;;9.30;99.90;;;;;;4986454;28;20050;-69
2023/11/09 09:29:55;;;;;;;1.88;1.08;;;9.30;99.90;;;;;;4989500;28;20467;-69
2023/11/09 09:32:21;;;;;;;1.63;1.00;;;9.30;99.90;;;;;;4990314;28;20019;-68
2023/11/09 09:34:46;;;;;;;1.38;0.98;;;9.30;99.90;;;;;;4985986;28;20442;-69
2023/11/09 09:37:14;;;;;;;2.17;1.10;;;9.30;99.90;;;;;;4991494;28;20467;-70
2023/11/09 09:39:42;;;;;;;2.38;1.08;;;9.40;99.90;;;;;;4982158;28;20034;-69
2023/11/09 09:42:08;;;;;;;1.48;0.90;;;9.40;99.90;;;;;;4991153;28;20529;-68
2023/11/09 09:44:35;;;;;;;2.90;1.35;;;9.40;99.90;;;;;;4982389;28;20083;-68
2023/11/09 09:47:01;;;;;;;1.08;0.90;;;9.40;99.90;;;;;;4986254;28;20042;-68
2023/11/09 09:49:28;;;;;;;2.00;0.95;;;9.40;99.90;;;;;;5006683;28;20030;-69
2023/11/09 09:51:55;;;;;;;2.55;1.40;;;9.40;99.90;;;;;;4990581;28;20065;-69
2023/11/09 09:54:21;;;;;;;1.52;0.98;;;9.40;99.90;;;;;;4988162;28;20034;-68
2023/11/09 09:56:47;;;;;;;2.55;1.20;;;9.40;99.90;;;;;;4984910;28;20458;-69
2023/11/09 09:59:14;;;;;;;1.40;0.88;;;9.50;99.90;;;;;;4989813;28;20061;-68
2023/11/09 10:01:43;;;;;;;1.73;1.17;;;9.40;99.90;;;;;;4979433;28;20030;-68
2023/11/09 10:04:11;;;;;;;1.42;1.00;;;9.50;99.90;;;;;;4989290;28;20022;-69
2023/11/09 10:06:38;;;;;;;2.28;1.27;;;9.50;99.90;;;;;;4978909;28;20152;-68
2023/11/09 10:09:05;;;;;;;5.90;3.13;;;9.50;99.90;;;;;;4989784;28;20518;-69
2023/11/09 10:11:32;;;;;;;7.50;3.65;;;9.50;99.90;;;;;;4985652;28;20471;-69
2023/11/09 10:13:58;;;;;;;9.32;3.65;;;9.60;99.90;;;;;;4986943;28;20165;-68
2023/11/09 10:16:33;;;;;;;14.38;6.28;;;9.50;99.90;;;;;;4988363;28;20050;-71
2023/11/09 10:19:02;;;;;;;7.95;4.00;;;9.60;99.90;;;;;;4984039;28;20046;-68
2023/11/09 10:21:30;;;;;;;7.53;3.83;;;9.60;99.90;;;;;;4987728;28;20037;-69
2023/11/09 10:23:58;;;;;;;6.85;3.20;;;9.60;99.90;;;;;;4988723;28;20041;-69
2023/11/09 10:26:41;;;;;;;3.20;2.30;;;9.60;99.90;;;;;;4984139;28;20066;-71
2023/11/09 10:29:13;;;;;;;2.35;1.38;;;9.60;99.90;;;;;;4984003;28;20112;-68
2023/11/09 10:31:40;;;;;;;2.35;1.52;;;9.60;99.90;;;;;;4991856;28;20058;-68
2023/11/09 10:34:10;;;;;;;1.75;1.42;;;9.60;99.90;;;;;;4990812;28;20209;-69
2023/11/09 10:36:37;;;;;;;9.60;1.67;;;9.60;99.90;;;;;;4978234;28;20110;-69
2023/11/09 10:39:16;;;;;;;2.53;1.55;;;9.60;99.90;;;;;;4976290;28;20045;-68
2023/11/09 10:41:44;;;;;;;1.33;1.08;;;9.60;99.90;;;;;;4986011;28;20376;-69
2023/11/09 10:44:11;;;;;;;2.03;1.17;;;9.60;99.90;;;;;;4987716;28;20395;-68
2023/11/09 10:46:38;;;;;;;2.08;1.30;;;9.60;99.90;;;;;;4982514;28;20035;-68
2023/11/09 10:49:05;;;;;;;5.35;2.55;;;9.60;99.90;;;;;;4989658;28;20034;-68
2023/11/09 10:51:34;;;;;;;4.70;2.35;;;9.60;99.90;;;;;;4984568;28;20034;-69
2023/11/09 10:54:01;;;;;;;1.45;1.13;;;9.60;99.90;;;;;;4981870;28;20038;-69
2023/11/09 10:56:29;;;;;;;1.17;1.02;;;9.60;99.90;;;;;;4981663;28;20028;-69
2023/11/09 10:58:56;;;;;;;1.45;1.10;;;9.60;99.90;;;;;;4991016;28;20031;-68
2023/11/09 11:01:30;;;;;;;1.60;1.17;;;9.70;99.90;;;;;;4987522;28;20084;-68
2023/11/09 11:03:58;;;;;;;1.45;1.00;;;9.70;99.90;;;;;;4979066;28;20031;-69
2023/11/09 11:06:51;;;;;;;2.50;1.13;;;9.70;99.90;;;;;;4979043;28;20097;-70
2023/11/09 11:09:25;;;;;;;1.65;1.33;;;9.80;99.90;;;;;;4980681;28;20034;-68
2023/11/09 11:12:01;;;;;;;2.05;1.45;;;9.80;99.90;;;;;;4984526;28;20463;-67
2023/11/09 11:14:31;;;;;;;2.63;1.10;;;9.80;99.90;;;;;;4985230;28;20034;-67
2023/11/09 11:17:34;;;;;;;3.72;2.10;;;9.80;99.90;;;;;;4991442;28;20026;-68
2023/11/09 11:20:22;;;;;;;2.20;1.80;;;9.90;99.90;;;;;;4995342;28;20050;-69
2023/11/09 11:23:32;;;;;;;2.50;1.75;;;9.90;99.90;;;;;;4986777;28;20427;-69
2023/11/09 11:26:07;;;;;;;2.43;1.40;;;9.90;99.90;;;;;;4986309;28;20126;-68
2023/11/09 11:28:32;;;;;;;2.20;1.35;;;9.90;99.90;;;;;;4985685;28;20364;-68
2023/11/09 11:31:04;;;;;;;2.17;1.08;;;9.90;99.90;;;;;;4977733;28;20041;-69
2023/11/09 11:33:30;;;;;;;1.67;1.00;;;10.00;99.90;;;;;;4987530;28;20415;-71
2023/11/09 11:35:58;;;;;;;2.25;1.55;;;10.00;99.90;;;;;;4994017;28;20038;-69
2023/11/09 11:38:32;;;;;;;2.13;1.45;;;10.00;99.90;;;;;;4991253;28;20031;-69
2023/11/09 11:41:20;;;;;;;1.92;1.30;;;10.10;99.90;;;;;;4983745;28;20049;-68
2023/11/09 11:43:53;;;;;;;2.05;1.50;;;10.10;99.90;;;;;;4982140;28;20054;-70
2023/11/09 11:46:22;;;;;;;1.85;1.33;;;10.10;99.90;;;;;;4989034;28;20034;-68
2023/11/09 11:48:50;;;;;;;1.40;1.10;;;10.10;99.90;;;;;;4986253;28;20022;-68
2023/11/09 11:51:18;;;;;;;2.00;1.60;;;10.00;99.90;;;;;;4989335;28;20161;-69
2023/11/09 11:53:44;;;;;;;3.40;1.52;;;10.00;99.90;;;;;;4990002;28;20025;-68
2023/11/09 11:56:18;;;;;;;2.92;1.58;;;10.00;99.90;;;;;;4988025;28;20114;-68
2023/11/09 11:58:46;;;;;;;2.03;1.48;;;10.00;99.90;;;;;;4988761;28;20022;-71
2023/11/09 12:01:18;;;;;;;3.67;2.15;;;10.10;99.90;;;;;;4984192;28;20022;-68
2023/11/09 12:03:47;;;;;;;3.15;1.92;;;10.10;99.90;;;;;;4987689;28;20034;-68
2023/11/09 12:06:13;;;;;;;1.58;1.25;;;10.10;99.90;;;;;;4988602;28;20077;-68
2023/11/09 12:08:41;;;;;;;2.33;1.65;;;10.10;99.80;;;;;;4990313;28;20027;-68
2023/11/09 12:11:09;;;;;;;1.30;1.20;;;10.20;99.90;;;;;;4987702;28;20023;-68
2023/11/09 12:13:35;;;;;;;3.05;1.63;;;10.30;99.90;;;;;;4986952;28;20034;-67
2023/11/09 12:16:00;;;;;;;2.78;1.73;;;10.30;99.80;;;;;;4987909;28;20035;-67
2023/11/09 12:18:26;;;;;;;2.35;1.40;;;10.30;99.60;;;;;;4983722;28;20030;-68
2023/11/09 12:20:54;;;;;;;1.92;1.50;;;10.30;99.50;;;;;;4989267;28;20152;-68
2023/11/09 12:23:23;;;;;;;1.73;1.17;;;10.40;99.70;;;;;;4986820;28;20085;-69
2023/11/09 12:25:52;;;;;;;1.88;1.40;;;10.40;99.60;;;;;;4989155;28;20038;-67
2023/11/09 12:28:19;;;;;;;1.65;1.13;;;10.40;99.30;;;;;;4985500;28;20471;-68
2023/11/09 12:30:46;;;;;;;1.52;1.10;;;10.40;99.30;;;;;;4989335;28;20041;-68
2023/11/09 12:33:12;;;;;;;1.15;1.00;;;10.30;98.70;;;;;;4983605;28;20027;-68
2023/11/09 12:35:46;;;;;;;2.08;1.05;;;10.30;98.80;;;;;;4986715;28;20494;-68
2023/11/09 12:38:12;;;;;;;1.15;0.70;;;10.10;98.50;;;;;;4988426;28;20034;-67
2023/11/09 12:40:40;;;;;;;0.50;0.50;;;10.10;98.50;;;;;;4989140;28;20069;-67
2023/11/09 12:43:07;;;;;;;1.23;0.60;;;10.10;98.80;;;;;;4987652;28;20119;-68
2023/11/09 12:45:38;;;;;;;1.27;0.93;;;10.00;98.70;;;;;;4985251;28;20062;-67
2023/11/09 12:48:03;;;;;;;3.08;1.17;;;10.00;98.80;;;;;;4991212;28;20029;-69
2023/11/09 12:50:34;;;;;;;0.70;0.70;;;9.90;98.80;;;;;;4989708;28;20541;-68
2023/11/09 12:53:02;;;;;;;0.93;0.80;;;9.90;98.80;;;;;;4985487;28;20483;-68
2023/11/09 12:55:28;;;;;;;0.98;0.80;;;9.80;98.50;;;;;;4987441;28;20038;-67
2023/11/09 12:57:54;;;;;;;1.20;0.90;;;9.80;98.10;;;;;;4982630;28;20046;-69
2023/11/09 13:00:20;;;;;;;1.83;0.90;;;9.80;97.80;;;;;;4983073;28;20046;-69
2023/11/09 13:02:56;;;;;;;1.40;0.90;;;9.80;97.80;;;;;;4987709;28;20483;-68
2023/11/09 13:05:22;;;;;;;0.65;0.57;;;9.80;97.90;;;;;;4989624;28;20061;-68
2023/11/09 13:07:48;;;;;;;1.23;0.82;;;9.80;97.90;;;;;;4988281;28;20034;-69